METAR Formatted Surface Weather Observation
Issued by NWS Charleston, WV

Home | Current Version | Previous Version | Text Only | Print | Product List | Glossary On
Versions: 1 2 3 4 5 6 7
000
SAUS41 KRLX 302301 COR
MTRCRW
METAR KCRW 302254Z 21007KT 10SM FEW100 SCT170 SCT300 31/19 A3005 RMK
AO2 SLP166 T03060189



USA.gov is the U.S. government's official web portal to all federal, state and local government web resources and services.